Terminal Aerodrome Forecast
Issued by NWS Nashville, TN

Home | Current Version | Previous Version | Text Only | Print | Product List | Glossary On
Versions: 1 2 3 4 5 6 7 8 9 10 11 12
000
FTUS44 KOHX 130500
TAFBNA
TAF
KBNA 130529Z 1306/1406 18004KT P6SM SCT120
     FM131400 23006KT P6SM BKN120
     FM131800 22008G18KT P6SM SCT060 BKN120
     FM140200 21007KT P6SM VCTS SCT060CB BKN120=

USA.gov is the U.S. government's official web portal to all federal, state and local government web resources and services.